createdAt,value
2023-03-01T00:01:13.634Z,50.93
2023-03-01T00:03:40.512Z,51.49
2023-03-01T00:06:07.484Z,51.38
2023-03-01T00:08:34.835Z,51.44
2023-03-01T00:11:19.402Z,50.97
2023-03-01T00:13:47.979Z,51.46
2023-03-01T00:16:18.150Z,51.13
2023-03-01T00:18:45.057Z,51.42
2023-03-01T00:21:11.684Z,51.49
2023-03-01T00:23:39.434Z,51.32
2023-03-01T00:26:11.935Z,51.24
2023-03-01T00:28:38.524Z,51.52
2023-03-01T00:31:17.082Z,50.83
2023-03-01T00:33:44.284Z,51.35
2023-03-01T00:36:12.923Z,51.22
2023-03-01T00:38:41.425Z,51.31
2023-03-01T00:41:10.162Z,51.66
2023-03-01T00:43:39.839Z,51.25
2023-03-01T00:46:09.512Z,51.45
2023-03-01T00:48:36.552Z,51.97
2023-03-01T00:51:24.932Z,50.92
2023-03-01T00:53:53.377Z,51.61
2023-03-01T00:56:20.207Z,51.54
2023-03-01T00:58:47.413Z,51.88
2023-03-01T01:01:20.937Z,51.54
2023-03-01T01:03:50.058Z,51.97
2023-03-01T01:06:28.096Z,51.82
2023-03-01T01:08:56.257Z,52.20
2023-03-01T01:11:24.379Z,51.94
2023-03-01T01:13:51.209Z,52.09
2023-03-01T01:16:20.082Z,52.14
2023-03-01T01:18:46.793Z,51.84
2023-03-01T01:21:16.614Z,52.13
2023-03-01T01:23:44.588Z,51.83
2023-03-01T01:26:14.013Z,52.22
2023-03-01T01:28:40.884Z,52.26
2023-03-01T01:31:07.584Z,52.15
2023-03-01T01:33:35.289Z,52.30
2023-03-01T01:36:01.758Z,52.49
2023-03-01T01:38:28.212Z,52.22
2023-03-01T01:40:54.691Z,52.12
2023-03-01T01:43:24.995Z,52.15
2023-03-01T01:45:55.556Z,52.48
2023-03-01T01:48:25.166Z,52.33
2023-03-01T01:51:01.540Z,52.05
2023-03-01T01:53:29.977Z,52.54
2023-03-01T01:55:59.551Z,52.11
2023-03-01T01:58:29.190Z,52.41
2023-03-01T02:00:55.784Z,52.18
2023-03-01T02:03:34.285Z,52.42
2023-03-01T02:06:20.695Z,52.06
2023-03-01T02:08:49.759Z,52.62
2023-03-01T02:11:16.550Z,52.45
2023-03-01T02:13:43.872Z,52.60
2023-03-01T02:16:14.294Z,52.92
2023-03-01T02:18:42.864Z,52.89
2023-03-01T02:21:21.554Z,52.34
2023-03-01T02:23:48.645Z,53.03
2023-03-01T02:26:37.914Z,52.58
2023-03-01T02:29:06.573Z,53.21
2023-03-01T02:31:42.564Z,53.23
2023-03-01T02:34:12.811Z,52.78
2023-03-01T02:36:48.720Z,52.62
2023-03-01T02:39:23.841Z,52.89
2023-03-01T02:41:55.055Z,53.12
2023-03-01T02:44:22.504Z,52.92
2023-03-01T02:46:52.164Z,53.30
2023-03-01T02:49:31.531Z,53.36
2023-03-01T02:52:14.147Z,52.68
2023-03-01T02:54:52.205Z,53.05
2023-03-01T02:57:20.511Z,53.46
2023-03-01T02:59:47.050Z,53.15
2023-03-01T03:02:37.534Z,53.28
2023-03-01T03:05:13.190Z,53.47
2023-03-01T03:07:42.763Z,53.41
2023-03-01T03:10:13.250Z,53.24
2023-03-01T03:12:40.193Z,53.58
2023-03-01T03:15:09.810Z,53.87
2023-03-01T03:17:41.277Z,53.74
2023-03-01T03:20:12.833Z,53.29
2023-03-01T03:22:40.900Z,53.40
2023-03-01T03:25:11.698Z,52.95
2023-03-01T03:27:43.691Z,53.12
2023-03-01T03:30:13.263Z,53.15
2023-03-01T03:32:41.448Z,53.96
2023-03-01T03:35:10.433Z,53.75
2023-03-01T03:37:59.781Z,54.25
2023-03-01T03:40:28.388Z,53.66
2023-03-01T03:42:55.785Z,53.86
2023-03-01T03:45:22.936Z,53.97
2023-03-01T03:47:49.432Z,54.42
2023-03-01T03:50:18.712Z,54.16
2023-03-01T03:52:45.396Z,54.19
2023-03-01T03:55:13.286Z,54.17
2023-03-01T03:57:41.493Z,54.17
2023-03-01T04:00:13.735Z,54.65
2023-03-01T04:02:44.102Z,53.99
2023-03-01T04:05:13.037Z,54.55
2023-03-01T04:07:39.684Z,53.96
2023-03-01T04:10:09.114Z,53.93
2023-03-01T04:12:35.893Z,54.17
2023-03-01T04:15:13.499Z,54.38
2023-03-01T04:17:42.350Z,54.54
2023-03-01T04:20:25.454Z,53.90
2023-03-01T04:22:59.652Z,53.13
2023-03-01T04:25:26.313Z,53.83
2023-03-01T04:27:53.119Z,54.25
2023-03-01T04:30:19.922Z,54.03
2023-03-01T04:32:46.442Z,54.07
2023-03-01T04:35:13.001Z,54.89
2023-03-01T04:37:39.557Z,54.55
2023-03-01T04:40:13.877Z,54.67
2023-03-01T04:42:40.301Z,54.67
2023-03-01T04:45:13.880Z,54.23
2023-03-01T04:47:42.422Z,54.77
2023-03-01T04:50:10.071Z,54.54
2023-03-01T04:52:36.563Z,54.62
2023-03-01T04:55:04.536Z,54.18
2023-03-01T04:57:31.707Z,54.59
2023-03-01T04:59:58.536Z,54.38
2023-03-01T05:02:25.007Z,54.56
2023-03-01T05:04:51.618Z,54.42
2023-03-01T05:07:21.308Z,54.99
2023-03-01T05:09:47.890Z,54.63
2023-03-01T05:12:15.411Z,54.78
2023-03-01T05:14:42.690Z,54.75
2023-03-01T05:17:09.158Z,55.11
2023-03-01T05:19:35.844Z,54.96
2023-03-01T05:22:05.208Z,54.80
2023-03-01T05:24:34.567Z,54.79
2023-03-01T05:27:02.459Z,54.84
2023-03-01T05:29:31.437Z,54.58
2023-03-01T05:32:01.814Z,54.87
2023-03-01T08:31:31.395Z,57.38
2023-03-01T08:34:00.885Z,56.95
2023-03-01T08:36:30.195Z,57.22
2023-03-01T08:38:57.232Z,57.10
2023-03-01T08:41:23.873Z,57.18
2023-03-01T08:43:50.790Z,57.39
2023-03-01T08:46:17.405Z,57.10
2023-03-01T08:48:44.274Z,57.08
2023-03-01T08:51:17.175Z,56.34
2023-03-01T08:53:43.879Z,55.70
2023-03-01T08:56:11.168Z,57.08
2023-03-01T08:58:38.768Z,56.88
2023-03-01T09:01:10.216Z,56.27
2023-03-01T09:03:37.765Z,56.73
2023-03-01T09:06:05.907Z,56.83
2023-03-01T09:08:36.129Z,56.28
2023-03-01T09:11:04.513Z,56.61
2023-03-01T09:13:32.299Z,56.73
2023-03-01T09:16:03.718Z,56.32
2023-03-01T09:18:30.320Z,56.63
2023-03-01T09:21:14.005Z,56.24
2023-03-01T09:23:43.483Z,56.73
2023-03-01T09:26:12.785Z,56.38
2023-03-01T09:28:45.427Z,56.66
2023-03-01T09:31:15.821Z,56.81
2023-03-01T09:33:43.286Z,56.73
2023-03-01T09:36:13.785Z,56.32
2023-03-01T09:38:40.673Z,56.83
2023-03-01T09:41:38.009Z,55.40
2023-03-01T09:44:14.776Z,55.83
2023-03-01T09:46:46.332Z,56.03
2023-03-01T09:49:19.327Z,55.95
2023-03-01T09:52:05.658Z,55.00
2023-03-01T09:54:32.338Z,56.29
2023-03-01T09:57:26.653Z,54.75
2023-03-01T09:59:59.185Z,54.95
2023-03-01T10:03:12.690Z,54.46
2023-03-01T10:05:53.610Z,54.61
2023-03-01T10:08:44.275Z,54.59
2023-03-01T10:11:45.933Z,54.45
2023-03-01T10:14:15.050Z,55.98
2023-03-01T10:16:51.378Z,55.31
2023-03-01T10:19:30.272Z,54.58
2023-03-01T10:22:01.940Z,55.70
2023-03-01T10:24:32.875Z,55.13
2023-03-01T10:27:05.415Z,54.42
2023-03-01T10:29:40.563Z,53.98
2023-03-01T10:32:07.781Z,55.26
2023-03-01T10:34:36.575Z,54.79
2023-03-01T10:37:10.861Z,53.13
2023-03-01T10:39:37.529Z,54.84
2023-03-01T10:42:14.789Z,54.43
2023-03-01T10:44:49.234Z,52.38
2023-03-01T10:47:21.652Z,52.93
2023-03-01T10:49:57.108Z,52.55
2023-03-01T10:52:30.959Z,52.44
2023-03-01T10:55:02.014Z,52.41
2023-03-01T10:57:42.314Z,51.29
2023-03-01T11:00:23.410Z,50.73
2023-03-01T11:03:05.057Z,50.56
2023-03-01T11:05:34.532Z,52.46
2023-03-01T11:08:04.213Z,51.69
2023-03-01T11:10:33.927Z,51.56
2023-03-01T11:13:13.483Z,49.32
2023-03-01T11:15:40.467Z,51.55
2023-03-01T11:18:31.057Z,48.68
2023-03-01T11:21:06.097Z,50.64
2023-03-01T11:23:33.913Z,50.64
2023-03-01T11:26:06.495Z,50.06
2023-03-01T11:28:35.817Z,50.88
2023-03-01T11:31:17.782Z,49.88
2023-03-01T11:33:56.441Z,49.15
2023-03-01T11:36:44.941Z,49.24
2023-03-01T11:39:38.983Z,49.47
2023-03-01T11:42:43.275Z,49.37
2023-03-01T11:45:12.863Z,51.48
2023-03-01T11:47:56.424Z,50.23
2023-03-01T11:50:49.347Z,50.33
2023-03-01T11:53:32.540Z,50.84
2023-03-01T11:56:10.677Z,52.98
2023-03-01T11:59:14.267Z,52.79
2023-03-01T12:01:55.633Z,50.06
2023-03-01T12:04:31.163Z,49.67
2023-03-01T12:07:02.978Z,48.48
2023-03-01T12:09:46.451Z,46.00
2023-03-01T12:12:51.995Z,45.48
2023-03-01T12:15:29.828Z,43.96
2023-03-01T12:18:17.746Z,42.81
2023-03-01T12:21:19.277Z,43.25
2023-03-01T12:24:25.029Z,43.10
2023-03-01T12:26:54.495Z,42.78
2023-03-01T12:29:35.445Z,40.18
2023-03-01T12:32:08.090Z,41.55
2023-03-01T12:34:53.268Z,40.98
2023-03-01T12:37:30.644Z,39.58
2023-03-01T12:39:59.831Z,41.25
2023-03-01T12:42:32.283Z,41.00
2023-03-01T12:45:26.881Z,38.14
2023-03-01T12:48:13.603Z,40.80
2023-03-01T12:50:42.714Z,40.61
2023-03-01T12:53:32.985Z,37.93
2023-03-01T12:56:03.259Z,38.31
2023-03-01T12:59:07.437Z,37.17
2023-03-01T13:01:50.144Z,36.79
2023-03-01T13:04:40.389Z,39.34
2023-03-01T13:07:25.847Z,39.31
2023-03-01T13:10:16.049Z,36.63
2023-03-01T13:12:48.524Z,36.18
2023-03-01T13:15:28.371Z,36.32
2023-03-01T13:18:16.840Z,36.16
2023-03-01T13:20:43.474Z,37.84
2023-03-01T13:23:22.406Z,35.86
2023-03-01T13:26:00.939Z,34.67
2023-03-01T13:28:45.591Z,34.62
2023-03-01T13:31:32.272Z,34.48
2023-03-01T13:33:59.724Z,34.96
2023-03-01T13:36:30.181Z,33.02
2023-03-01T13:39:39.545Z,34.00
2023-03-01T13:42:33.892Z,32.72
2023-03-01T13:45:01.443Z,34.63
2023-03-01T13:47:28.950Z,34.89
2023-03-01T13:50:01.553Z,33.70
2023-03-01T13:52:44.786Z,33.40
2023-03-01T13:55:20.438Z,36.90
2023-03-01T13:57:54.456Z,35.76
2023-03-01T14:00:39.059Z,35.33
2023-03-01T14:03:19.282Z,36.90
2023-03-01T14:06:11.161Z,34.88
2023-03-01T14:08:42.098Z,37.09
2023-03-01T14:11:28.127Z,36.91
2023-03-01T14:14:13.105Z,37.49
2023-03-01T14:16:54.296Z,35.71
2023-03-01T14:19:34.587Z,36.04
2023-03-01T14:22:05.443Z,38.30
2023-03-01T14:24:35.417Z,37.76
2023-03-01T14:27:03.098Z,37.66
2023-03-01T14:29:38.944Z,34.45
2023-03-01T14:32:22.996Z,34.94
2023-03-01T14:34:51.414Z,36.80
2023-03-01T14:37:30.902Z,34.47
2023-03-01T14:39:59.037Z,36.20
2023-03-01T14:42:29.236Z,34.08
2023-03-01T14:44:58.493Z,34.18
2023-03-01T14:50:17.496Z,33.42
2023-03-01T14:52:47.755Z,32.48
2023-03-01T14:55:38.350Z,31.18
2023-03-01T14:58:10.008Z,32.58
2023-03-01T15:00:37.140Z,32.94
2023-03-01T15:03:18.575Z,31.73
2023-03-01T15:05:45.349Z,32.11
2023-03-01T15:08:24.738Z,30.45
2023-03-01T15:11:03.927Z,30.33
2023-03-01T15:13:34.892Z,30.10
2023-03-01T15:16:13.598Z,31.10
2023-03-01T15:18:49.899Z,29.63
2023-03-01T15:21:24.041Z,30.79
2023-03-01T15:24:05.472Z,30.80
2023-03-01T15:26:43.405Z,29.98
2023-03-01T15:29:22.594Z,30.62
2023-03-01T15:31:58.598Z,30.03
2023-03-01T15:34:26.604Z,30.39
2023-03-01T15:36:55.309Z,30.18
2023-03-01T15:39:44.083Z,29.60
2023-03-01T15:42:13.085Z,29.84
2023-03-01T15:44:46.018Z,29.77
2023-03-01T15:47:26.902Z,31.46
2023-03-01T15:49:55.951Z,31.42
2023-03-01T15:52:30.484Z,31.25
2023-03-01T15:55:02.418Z,31.55
2023-03-01T15:57:29.504Z,32.96
2023-03-01T15:59:56.352Z,33.31
2023-03-01T16:02:24.960Z,33.57
2023-03-01T16:04:52.025Z,34.15
2023-03-01T16:07:18.484Z,34.62
2023-03-01T16:09:45.046Z,34.89
2023-03-01T16:12:17.455Z,34.67
2023-03-01T16:14:44.303Z,35.78
2023-03-01T16:17:14.154Z,36.19
2023-03-01T16:19:41.953Z,36.33
2023-03-01T16:22:11.595Z,36.45
2023-03-01T16:24:38.499Z,37.08
2023-03-01T16:27:04.964Z,37.49
2023-03-01T16:29:31.533Z,37.68
2023-03-01T16:32:00.832Z,37.81
2023-03-01T16:34:27.514Z,38.04
2023-03-01T16:36:54.163Z,38.09
2023-03-01T16:39:20.685Z,38.43
2023-03-01T16:41:47.169Z,38.49
2023-03-01T16:44:13.738Z,38.74
2023-03-01T16:46:42.739Z,38.48
2023-03-01T16:49:09.324Z,38.98
2023-03-01T16:51:36.649Z,39.17
2023-03-01T16:54:05.448Z,39.19
2023-03-01T16:56:35.222Z,39.41
2023-03-01T16:59:04.454Z,39.34
2023-03-01T17:01:40.410Z,39.39
2023-03-01T17:04:07.883Z,39.53
2023-03-01T17:06:34.425Z,39.69
2023-03-01T17:09:00.944Z,39.71
2023-03-01T17:11:28.578Z,39.93
2023-03-01T17:13:55.127Z,40.10
2023-03-01T17:16:22.969Z,40.40
2023-03-01T17:18:49.842Z,40.51
2023-03-01T17:21:16.808Z,40.75
2023-03-01T17:23:45.513Z,40.58
2023-03-01T17:26:13.609Z,40.87
2023-03-01T17:28:40.480Z,40.78
2023-03-01T17:31:07.980Z,40.85
2023-03-01T17:33:34.691Z,41.44
2023-03-01T17:36:02.057Z,41.30
2023-03-01T17:38:28.671Z,41.61
2023-03-01T17:40:55.128Z,41.48
2023-03-01T17:43:21.788Z,41.74
2023-03-01T17:45:50.644Z,41.80
2023-03-01T17:48:17.650Z,41.76
2023-03-01T17:50:44.763Z,41.69
2023-03-01T17:53:11.965Z,41.97
2023-03-01T17:55:43.415Z,41.55
2023-03-01T17:58:12.687Z,42.17
2023-03-01T18:00:39.524Z,42.36
2023-03-01T18:03:06.929Z,42.35
2023-03-01T18:05:35.245Z,42.83
2023-03-01T18:08:02.128Z,42.95
2023-03-01T18:10:28.663Z,42.99
2023-03-01T18:12:55.214Z,43.34
2023-03-01T18:15:21.849Z,43.23
2023-03-01T18:17:48.580Z,43.42
2023-03-01T18:20:16.071Z,43.33
2023-03-01T18:22:42.808Z,43.69
2023-03-01T18:25:09.710Z,43.71
2023-03-01T18:27:37.014Z,44.03
2023-03-01T18:30:06.894Z,43.83
2023-03-01T18:32:33.714Z,43.86
2023-03-01T18:35:00.215Z,44.22
2023-03-01T18:37:26.669Z,44.01
2023-03-01T18:39:54.313Z,43.99
2023-03-01T18:42:21.921Z,44.31
2023-03-01T18:44:48.950Z,44.00
2023-03-01T18:47:16.973Z,44.35
2023-03-01T18:49:44.166Z,44.11
2023-03-01T18:52:11.293Z,44.22
2023-03-01T18:54:37.929Z,44.50
2023-03-01T18:57:05.155Z,44.77
2023-03-01T18:59:32.125Z,44.90
2023-03-01T19:01:58.601Z,45.02
2023-03-01T19:04:25.142Z,45.11
2023-03-01T19:06:51.670Z,45.12
2023-03-01T19:09:18.337Z,45.54
2023-03-01T19:11:44.970Z,45.61
2023-03-01T19:14:11.529Z,45.62
2023-03-01T19:16:38.033Z,45.44
2023-03-01T19:19:08.448Z,45.43
2023-03-01T19:21:35.459Z,46.05
2023-03-01T19:24:02.623Z,45.92
2023-03-01T19:26:30.436Z,45.89
2023-03-01T19:28:57.408Z,45.88
2023-03-01T19:31:27.115Z,46.26
2023-03-01T19:33:57.046Z,46.15
2023-03-01T19:36:33.757Z,46.24
2023-03-01T19:39:06.631Z,46.39
2023-03-01T19:41:33.759Z,46.30
2023-03-01T19:44:04.482Z,46.44
2023-03-01T19:46:31.216Z,46.82
2023-03-01T19:49:00.344Z,46.74
2023-03-01T19:51:27.448Z,46.92
2023-03-01T19:53:54.838Z,46.78
2023-03-01T19:56:21.468Z,46.69
2023-03-01T19:58:50.160Z,47.01
2023-03-01T20:01:19.595Z,47.02
2023-03-01T20:03:46.966Z,47.18
2023-03-01T20:06:16.692Z,47.08
2023-03-01T20:08:44.626Z,47.09
2023-03-01T20:11:13.624Z,47.09
2023-03-01T20:13:40.495Z,47.21
2023-03-01T20:16:07.766Z,47.21
2023-03-01T20:18:34.998Z,47.35
2023-03-01T20:21:02.796Z,47.20
2023-03-01T20:23:30.516Z,47.41
2023-03-01T20:26:06.158Z,47.34
2023-03-01T20:28:34.588Z,47.73
2023-03-01T20:31:09.234Z,47.75
2023-03-01T20:33:35.852Z,47.72
2023-03-01T20:36:02.913Z,47.75
2023-03-01T20:38:29.437Z,47.93
2023-03-01T20:41:05.700Z,47.53
2023-03-01T20:43:32.953Z,47.62
2023-03-01T20:46:03.691Z,47.74
2023-03-01T20:48:30.187Z,47.89
2023-03-01T20:50:59.725Z,48.07
2023-03-01T20:53:26.182Z,47.98
2023-03-01T20:55:52.687Z,47.96
2023-03-01T20:58:19.205Z,47.85
2023-03-01T21:00:45.765Z,47.84
2023-03-01T21:03:12.295Z,48.24
2023-03-01T21:05:38.847Z,48.11
2023-03-01T21:08:05.642Z,48.08
2023-03-01T21:10:33.274Z,48.18
2023-03-01T21:12:59.758Z,48.23
2023-03-01T21:15:29.293Z,48.36
2023-03-01T21:17:56.565Z,48.31
2023-03-01T21:20:23.485Z,48.31
2023-03-01T21:22:50.017Z,48.49
2023-03-01T21:25:16.659Z,48.55
2023-03-01T21:27:43.440Z,48.67
2023-03-01T21:30:10.867Z,48.85
2023-03-01T21:32:37.391Z,48.89
2023-03-01T21:35:04.124Z,49.07
2023-03-01T21:37:30.706Z,49.04
2023-03-01T21:39:57.336Z,49.12
2023-03-01T21:42:24.060Z,49.14
2023-03-01T21:44:50.484Z,49.29
2023-03-01T21:47:17.073Z,49.26
2023-03-01T21:49:43.664Z,49.30
2023-03-01T21:52:16.745Z,49.65
2023-03-01T21:54:44.095Z,49.35
2023-03-01T21:57:11.261Z,49.35
2023-03-01T21:59:38.234Z,49.49
2023-03-01T22:02:05.098Z,49.61
2023-03-01T22:04:31.529Z,49.73
2023-03-01T22:06:58.148Z,50.01
2023-03-01T22:09:24.994Z,50.24
2023-03-01T22:11:54.442Z,50.47
2023-03-01T22:14:22.096Z,50.36
2023-03-01T22:16:51.224Z,50.34
2023-03-01T22:19:18.207Z,50.60
2023-03-01T22:21:47.050Z,50.88
2023-03-01T22:24:15.020Z,50.64
2023-03-01T22:26:44.395Z,50.96
2023-03-01T22:29:24.231Z,51.15
2023-03-01T22:31:51.409Z,50.85
2023-03-01T22:34:18.692Z,51.00
2023-03-01T22:36:46.209Z,51.12
2023-03-01T22:39:15.121Z,51.57
2023-03-01T22:41:45.453Z,51.60
2023-03-01T22:44:14.277Z,51.71
2023-03-01T22:46:41.434Z,51.84
2023-03-01T22:49:08.900Z,52.01
2023-03-01T22:51:37.857Z,51.97
2023-03-01T22:54:05.156Z,52.32
2023-03-01T22:56:34.846Z,52.20
2023-03-01T22:59:09.623Z,52.39
2023-03-01T23:01:37.760Z,52.52
2023-03-01T23:04:04.639Z,52.52
2023-03-01T23:06:31.630Z,52.56
2023-03-01T23:09:01.221Z,52.99
2023-03-01T23:11:29.541Z,53.04
2023-03-01T23:13:56.295Z,53.15
2023-03-01T23:16:26.303Z,53.54
2023-03-01T23:18:55.476Z,53.69
2023-03-01T23:21:22.962Z,53.59
2023-03-01T23:23:49.564Z,53.69
2023-03-01T23:26:17.565Z,54.28
2023-03-01T23:28:44.372Z,54.29
2023-03-01T23:31:13.909Z,54.34
2023-03-01T23:33:43.371Z,54.47
2023-03-01T23:36:31.813Z,55.16
2023-03-01T23:39:05.310Z,54.89
2023-03-01T23:41:32.756Z,54.30
2023-03-01T23:44:01.491Z,54.30
2023-03-01T23:46:31.406Z,54.98
2023-03-01T23:48:58.573Z,54.94
2023-03-01T23:51:25.584Z,54.83
2023-03-01T23:53:59.950Z,55.88
2023-03-01T23:56:30.107Z,55.45
2023-03-01T23:59:02.418Z,55.59
